createdAt,value
2018-08-30T00:01:42.006Z,17.63
2018-08-30T00:04:11.510Z,18.40
2018-08-30T00:06:40.914Z,18.00
2018-08-30T00:09:10.214Z,18.07
2018-08-30T00:11:39.718Z,18.23
2018-08-30T00:14:09.150Z,18.87
2018-08-30T00:16:38.520Z,19.00
2018-08-30T00:19:07.779Z,18.47
2018-08-30T00:21:37.122Z,19.33
2018-08-30T00:24:06.602Z,19.30
2018-08-30T00:26:36.026Z,20.47
2018-08-30T00:29:05.428Z,20.13
2018-08-30T00:31:34.831Z,20.17
2018-08-30T00:34:04.233Z,20.30
2018-08-30T00:36:33.634Z,20.90
2018-08-30T00:39:03.035Z,20.97
2018-08-30T00:41:32.322Z,20.17
2018-08-30T00:44:01.788Z,20.67
2018-08-30T00:46:31.038Z,21.13
2018-08-30T00:49:00.439Z,20.97
2018-08-30T00:51:29.842Z,21.63
2018-08-30T00:53:59.350Z,20.13
2018-08-30T00:56:28.747Z,21.33
2018-08-30T00:58:58.457Z,20.90
2018-08-30T01:01:27.859Z,22.77
2018-08-30T01:03:57.364Z,22.07
2018-08-30T01:06:26.664Z,22.27
2018-08-30T01:08:56.065Z,22.53
2018-08-30T01:11:25.467Z,22.63
2018-08-30T01:13:54.971Z,23.20
2018-08-30T01:16:24.374Z,23.70
2018-08-30T01:18:53.775Z,24.00
2018-08-30T01:21:23.177Z,23.10
2018-08-30T01:23:52.581Z,23.40
2018-08-30T01:26:21.910Z,23.43
2018-08-30T01:28:51.193Z,22.20
2018-08-30T01:31:20.940Z,22.90
2018-08-30T01:33:50.394Z,22.87
2018-08-30T01:36:19.796Z,22.63
2018-08-30T01:38:49.311Z,22.20
2018-08-30T01:41:18.880Z,22.40
2018-08-30T01:43:48.311Z,22.57
2018-08-30T01:46:17.549Z,22.47
2018-08-30T01:48:46.907Z,23.60
2018-08-30T01:51:16.411Z,22.73
2018-08-30T01:53:45.737Z,22.53
2018-08-30T01:56:15.215Z,23.23
2018-08-30T01:58:44.694Z,23.73
2018-08-30T02:01:14.125Z,24.43
2018-08-30T02:03:43.525Z,23.50
2018-08-30T02:06:12.927Z,25.10
2018-08-30T02:08:42.533Z,24.13
2018-08-30T02:11:12.106Z,23.10
2018-08-30T02:13:41.553Z,22.67
2018-08-30T02:16:10.885Z,22.50
2018-08-30T02:18:40.346Z,22.37
2018-08-30T02:21:09.748Z,21.60
2018-08-30T02:23:39.048Z,22.43
2018-08-30T02:26:08.374Z,21.03
2018-08-30T02:28:37.666Z,20.20
2018-08-30T02:31:07.151Z,18.73
2018-08-30T02:33:36.554Z,18.20
2018-08-30T02:36:06.058Z,19.33
2018-08-30T02:38:35.460Z,18.43
2018-08-30T02:41:05.067Z,18.57
2018-08-30T02:43:34.571Z,17.50
2018-08-30T02:46:03.981Z,17.50
2018-08-30T02:48:33.210Z,16.43
2018-08-30T02:51:02.573Z,14.77
2018-08-30T02:53:31.975Z,15.03
2018-08-30T02:56:01.278Z,15.63
2018-08-30T02:58:30.676Z,16.67
2018-08-30T03:01:00.187Z,16.40
2018-08-30T03:03:29.584Z,16.63
2018-08-30T03:05:59.189Z,16.73
2018-08-30T03:08:28.592Z,16.93
2018-08-30T03:10:57.892Z,16.63
2018-08-30T03:13:27.102Z,17.03
2018-08-30T03:15:56.592Z,18.57
2018-08-30T03:18:25.996Z,19.50
2018-08-30T03:20:55.396Z,20.13
2018-08-30T03:23:24.799Z,21.23
2018-08-30T03:25:54.302Z,22.00
2018-08-30T03:28:23.704Z,22.43
2018-08-30T03:30:53.258Z,24.00
2018-08-30T03:33:22.430Z,25.83
2018-08-30T03:35:51.810Z,25.40
2018-08-30T03:38:21.210Z,26.80
2018-08-30T03:40:50.715Z,28.57
2018-08-30T03:43:20.117Z,30.03
2018-08-30T03:45:49.419Z,29.00
2018-08-30T03:48:18.921Z,30.00
2018-08-30T03:50:48.322Z,31.97
2018-08-30T03:53:17.729Z,33.47
2018-08-30T03:55:47.436Z,35.73
2018-08-30T03:58:16.782Z,36.60
2018-08-30T04:00:46.445Z,36.37
2018-08-30T04:03:15.846Z,36.97
2018-08-30T04:05:45.178Z,38.17
2018-08-30T04:08:14.440Z,38.47
2018-08-30T04:10:44.011Z,38.90
2018-08-30T04:13:13.454Z,40.00
2018-08-30T04:15:42.957Z,40.37
2018-08-30T04:18:12.360Z,41.90
2018-08-30T04:20:41.610Z,41.20
2018-08-30T04:23:10.796Z,43.07
2018-08-30T04:25:40.260Z,43.63
2018-08-30T04:28:09.665Z,42.90
2018-08-30T04:30:39.014Z,42.70
2018-08-30T04:33:08.459Z,41.50
2018-08-30T04:35:37.766Z,43.53
2018-08-30T04:38:07.342Z,42.93
2018-08-30T04:40:36.775Z,43.70
2018-08-30T04:43:06.176Z,41.77
2018-08-30T04:45:35.578Z,40.87
2018-08-30T04:48:04.980Z,40.30
2018-08-30T04:50:34.557Z,41.00
2018-08-30T04:53:03.992Z,40.90
2018-08-30T04:55:33.398Z,40.03
2018-08-30T04:58:02.792Z,39.63
2018-08-30T05:00:32.050Z,40.10
2018-08-30T05:03:01.290Z,40.20
2018-08-30T05:05:30.589Z,40.40
2018-08-30T05:07:59.909Z,41.47
2018-08-30T05:10:29.393Z,40.47
2018-08-30T05:12:58.795Z,41.73
2018-08-30T05:15:28.196Z,39.00
2018-08-30T05:17:57.497Z,30.83
2018-08-30T05:20:26.926Z,20.10
2018-08-30T05:22:56.228Z,12.80
2018-08-30T05:25:25.649Z,8.83
2018-08-30T05:27:55.004Z,7.40
2018-08-30T05:30:24.331Z,6.80
2018-08-30T05:32:54.118Z,6.30
2018-08-30T05:35:23.620Z,6.23
2018-08-30T05:37:53.838Z,6.40
2018-08-30T05:40:23.046Z,5.40
2018-08-30T05:42:52.648Z,6.00
2018-08-30T05:45:22.103Z,5.90
2018-08-30T05:47:51.652Z,5.90
2018-08-30T05:50:21.085Z,6.27
2018-08-30T05:52:50.661Z,4.87
2018-08-30T05:55:20.064Z,4.50
2018-08-30T05:57:49.567Z,4.80
2018-08-30T06:00:18.900Z,4.57
2018-08-30T06:02:48.268Z,4.63
2018-08-30T06:05:17.673Z,4.77
2018-08-30T06:07:46.936Z,4.50
2018-08-30T06:10:16.290Z,4.40
2018-08-30T06:12:45.484Z,4.47
2018-08-30T06:15:14.869Z,4.80
2018-08-30T06:17:44.577Z,4.60
2018-08-30T06:20:13.981Z,4.30
2018-08-30T06:22:43.485Z,4.67
2018-08-30T06:25:12.888Z,3.80
2018-08-30T06:27:42.292Z,3.87
2018-08-30T06:30:11.691Z,3.60
2018-08-30T06:32:41.279Z,4.20
2018-08-30T06:35:10.603Z,3.87
2018-08-30T06:37:39.998Z,3.60
2018-08-30T06:40:09.810Z,2.93
2018-08-30T06:42:39.212Z,2.60
2018-08-30T06:45:08.613Z,2.20
2018-08-30T06:47:38.016Z,2.10
2018-08-30T06:50:07.520Z,2.37
2018-08-30T06:52:36.920Z,2.20
2018-08-30T06:55:06.535Z,2.40
2018-08-30T06:57:35.932Z,1.83
2018-08-30T07:00:06.154Z,2.13
2018-08-30T07:02:35.657Z,1.77
2018-08-30T07:05:05.161Z,1.70
2018-08-30T07:07:34.563Z,1.70
2018-08-30T07:10:04.027Z,1.67
2018-08-30T07:12:33.264Z,1.80
2018-08-30T07:15:02.792Z,1.40
2018-08-30T07:17:32.275Z,1.60
2018-08-30T07:20:01.677Z,1.43
2018-08-30T07:22:31.077Z,1.47
2018-08-30T07:25:00.277Z,1.40
2018-08-30T07:27:29.780Z,1.60
2018-08-30T07:29:59.180Z,1.53
2018-08-30T07:32:28.583Z,1.60
2018-08-30T07:34:58.074Z,1.83
2018-08-30T07:37:27.166Z,2.20
2018-08-30T07:39:56.480Z,1.80
2018-08-30T07:42:25.885Z,1.97
2018-08-30T07:44:55.179Z,2.40
2018-08-30T07:47:24.586Z,1.90
2018-08-30T07:49:54.062Z,1.90
2018-08-30T07:52:23.493Z,1.70
2018-08-30T07:54:52.894Z,1.50
2018-08-30T07:57:22.426Z,1.80
2018-08-30T07:59:51.718Z,1.80
2018-08-30T08:02:21.017Z,1.50
2018-08-30T08:04:50.298Z,1.63
2018-08-30T08:07:19.852Z,1.63
2018-08-30T08:09:49.203Z,1.47
2018-08-30T08:12:18.606Z,1.50
2018-08-30T08:14:47.847Z,1.70
2018-08-30T08:17:17.264Z,1.50
2018-08-30T08:19:46.553Z,1.40
2018-08-30T08:22:15.786Z,1.60
2018-08-30T08:24:45.039Z,1.60
2018-08-30T08:27:14.404Z,1.70
2018-08-30T08:29:43.805Z,1.70
2018-08-30T08:32:13.103Z,2.00
2018-08-30T08:34:42.509Z,2.03
2018-08-30T08:37:11.994Z,2.17
2018-08-30T08:39:41.414Z,2.30
2018-08-30T08:42:10.712Z,2.43
2018-08-30T08:44:40.116Z,2.80
2018-08-30T08:47:09.518Z,2.83
2018-08-30T08:49:38.871Z,2.77
2018-08-30T08:52:08.264Z,3.07
2018-08-30T08:54:37.527Z,2.93
2018-08-30T08:57:07.134Z,2.90
2018-08-30T08:59:36.529Z,3.27
2018-08-30T09:02:05.927Z,3.57
2018-08-30T09:04:35.436Z,3.37
2018-08-30T09:07:04.679Z,3.30
2018-08-30T09:09:34.134Z,3.23
2018-08-30T09:12:03.376Z,3.50
2018-08-30T09:14:32.928Z,4.20
2018-08-30T09:17:02.339Z,4.20
2018-08-30T09:19:32.050Z,4.40
2018-08-30T09:22:01.451Z,4.77
2018-08-30T09:24:30.853Z,5.40
2018-08-30T09:27:00.265Z,5.37
2018-08-30T09:29:29.657Z,5.93
2018-08-30T09:32:00.696Z,6.00
2018-08-30T09:34:29.997Z,6.50
2018-08-30T09:36:59.400Z,6.67
2018-08-30T09:39:28.801Z,9.47
2018-08-30T09:41:58.203Z,10.40
2018-08-30T09:44:27.605Z,10.00
2018-08-30T09:46:56.908Z,11.33
2018-08-30T09:49:26.451Z,11.07
2018-08-30T09:51:56.010Z,12.70
2018-08-30T09:54:25.623Z,12.53
2018-08-30T09:56:55.091Z,13.20
2018-08-30T09:59:24.528Z,13.20
2018-08-30T10:01:59.116Z,12.83
2018-08-30T10:04:28.555Z,13.30
2018-08-30T10:06:58.043Z,13.50
2018-08-30T10:09:28.486Z,13.77
2018-08-30T10:11:58.199Z,13.00
2018-08-30T10:14:27.699Z,13.30
2018-08-30T10:16:57.203Z,13.37
2018-08-30T10:19:26.567Z,11.97
2018-08-30T10:21:56.213Z,11.70
2018-08-30T10:24:25.487Z,11.87
2018-08-30T10:26:55.004Z,12.57
2018-08-30T10:29:24.418Z,12.43
2018-08-30T10:31:53.682Z,11.50
2018-08-30T10:34:23.324Z,12.33
2018-08-30T10:36:52.788Z,12.90
2018-08-30T10:39:22.050Z,12.63
2018-08-30T10:41:51.316Z,12.87
2018-08-30T10:44:20.728Z,12.33
2018-08-30T10:46:49.928Z,12.70
2018-08-30T10:49:19.368Z,12.00
2018-08-30T10:51:48.796Z,11.83
2018-08-30T10:54:25.607Z,11.97
2018-08-30T10:56:55.009Z,11.80
2018-08-30T10:59:24.513Z,11.83
2018-08-30T11:01:53.955Z,11.90
2018-08-30T11:04:23.570Z,12.27
2018-08-30T11:06:53.067Z,11.77
2018-08-30T11:09:22.702Z,11.87
2018-08-30T11:11:52.138Z,11.47
2018-08-30T11:14:21.547Z,11.20
2018-08-30T11:16:51.045Z,11.43
2018-08-30T11:19:20.400Z,11.40
2018-08-30T11:21:49.747Z,11.57
2018-08-30T11:24:19.148Z,10.77
2018-08-30T11:26:48.596Z,9.50
2018-08-30T11:29:17.951Z,9.37
2018-08-30T11:31:47.356Z,10.30
2018-08-30T11:34:16.598Z,9.67
2018-08-30T11:36:45.815Z,9.23
2018-08-30T11:39:15.252Z,9.13
2018-08-30T11:41:44.769Z,10.20
2018-08-30T11:44:14.160Z,10.37
2018-08-30T11:46:43.560Z,10.23
2018-08-30T11:49:12.962Z,9.33
2018-08-30T11:51:42.286Z,9.60
2018-08-30T11:54:11.644Z,9.40
2018-08-30T11:56:41.066Z,8.97
2018-08-30T11:59:10.297Z,9.60
2018-08-30T12:01:39.767Z,9.60
2018-08-30T12:04:10.597Z,9.20
2018-08-30T12:06:39.983Z,9.53
2018-08-30T12:09:10.534Z,9.00
2018-08-30T12:11:40.698Z,8.10
2018-08-30T12:14:09.980Z,8.37
2018-08-30T12:16:39.661Z,8.73
2018-08-30T12:19:09.072Z,8.70
2018-08-30T12:21:38.464Z,8.00
2018-08-30T12:24:07.845Z,8.23
2018-08-30T12:26:37.438Z,7.87
2018-08-30T12:29:06.913Z,7.93
2018-08-30T12:31:36.619Z,7.30
2018-08-30T12:34:06.105Z,6.97
2018-08-30T12:36:35.507Z,7.20
2018-08-30T12:39:06.150Z,7.33
2018-08-30T12:41:35.533Z,7.23
2018-08-30T12:44:04.934Z,7.20
2018-08-30T12:46:34.481Z,7.33
2018-08-30T12:49:03.992Z,7.43
2018-08-30T12:51:33.456Z,7.60
2018-08-30T12:54:02.755Z,7.23
2018-08-30T12:56:38.495Z,7.57
2018-08-30T12:59:13.202Z,7.20
2018-08-30T13:01:42.543Z,6.83
2018-08-30T13:04:11.801Z,7.23
2018-08-30T13:06:45.812Z,6.80
2018-08-30T13:09:16.480Z,6.57
2018-08-30T13:11:45.787Z,6.83
2018-08-30T13:14:15.127Z,6.90
2018-08-30T13:16:44.385Z,6.33
2018-08-30T13:19:13.768Z,6.40
2018-08-30T13:21:43.235Z,6.50
2018-08-30T13:24:12.775Z,6.80
2018-08-30T13:26:42.309Z,6.10
2018-08-30T13:29:11.578Z,6.30
2018-08-30T13:31:41.383Z,7.13
2018-08-30T13:34:10.823Z,6.07
2018-08-30T13:36:40.256Z,6.57
2018-08-30T13:39:10.507Z,6.70
2018-08-30T13:41:40.392Z,6.57
2018-08-30T13:44:10.874Z,6.90
2018-08-30T13:46:41.356Z,6.67
2018-08-30T13:49:11.570Z,6.60
2018-08-30T13:51:41.062Z,7.17
2018-08-30T13:54:10.631Z,6.17
2018-08-30T13:56:40.207Z,6.10
2018-08-30T13:59:09.638Z,6.77
2018-08-30T14:01:39.075Z,6.60
2018-08-30T14:04:08.416Z,6.87
2018-08-30T14:06:37.662Z,6.78
2018-08-30T14:09:07.271Z,7.28
2018-08-30T14:11:36.468Z,7.50
2018-08-30T14:14:05.808Z,6.90
2018-08-30T14:16:34.919Z,7.20
2018-08-30T14:19:04.348Z,7.30
2018-08-30T14:21:33.896Z,6.80
2018-08-30T14:24:03.386Z,6.28
2018-08-30T14:26:32.808Z,6.17
2018-08-30T14:29:02.341Z,6.03
2018-08-30T14:31:31.740Z,5.00
2018-08-30T14:34:00.947Z,4.72
2018-08-30T14:36:30.530Z,5.15
2018-08-30T14:38:59.785Z,4.55
2018-08-30T14:41:29.186Z,4.85
2018-08-30T14:43:58.287Z,4.83
2018-08-30T14:46:27.534Z,4.90
2018-08-30T14:48:56.837Z,5.20
2018-08-30T14:51:26.092Z,4.53
2018-08-30T14:53:56.845Z,4.95
2018-08-30T14:56:26.067Z,4.67
2018-08-30T14:58:55.571Z,4.80
2018-08-30T15:01:25.179Z,4.90
2018-08-30T15:03:54.494Z,4.20
2018-08-30T15:06:24.019Z,4.60
2018-08-30T15:08:53.286Z,4.00
2018-08-30T15:11:22.932Z,4.30
2018-08-30T15:13:52.393Z,4.00
2018-08-30T15:16:21.950Z,4.37
2018-08-30T15:18:51.300Z,4.45
2018-08-30T15:21:20.600Z,4.35
2018-08-30T15:23:49.901Z,4.75
2018-08-30T15:26:19.405Z,4.12
2018-08-30T15:28:48.859Z,5.22
2018-08-30T15:31:18.308Z,4.85
2018-08-30T15:33:47.820Z,4.58
2018-08-30T15:36:17.319Z,4.50
2018-08-30T15:38:46.614Z,4.22
2018-08-30T15:41:16.216Z,5.10
2018-08-30T15:43:45.420Z,4.95
2018-08-30T15:46:14.754Z,5.22
2018-08-30T15:48:44.175Z,4.30
2018-08-30T15:51:13.625Z,4.20
2018-08-30T15:53:43.102Z,3.40
2018-08-30T15:56:12.635Z,4.12
2018-08-30T15:58:42.139Z,3.98
2018-08-30T16:01:11.648Z,4.10
2018-08-30T16:03:41.355Z,4.40
2018-08-30T16:06:11.889Z,4.00
2018-08-30T16:08:41.388Z,4.25
2018-08-30T16:11:11.763Z,5.17
2018-08-30T16:13:41.213Z,4.25
2018-08-30T16:16:10.787Z,4.10
2018-08-30T16:18:40.341Z,3.90
2018-08-30T16:21:09.934Z,4.08
2018-08-30T16:23:39.540Z,3.45
2018-08-30T16:26:10.303Z,4.85
2018-08-30T16:28:39.855Z,4.65
2018-08-30T16:31:09.450Z,4.03
2018-08-30T16:33:38.786Z,4.30
2018-08-30T16:36:08.493Z,3.90
2018-08-30T16:38:38.047Z,4.12
2018-08-30T16:41:07.708Z,5.53
2018-08-30T16:43:37.211Z,6.45
2018-08-30T16:46:07.433Z,6.37
2018-08-30T16:48:36.998Z,4.62
2018-08-30T16:51:06.294Z,3.98
2018-08-30T16:53:35.743Z,3.30
2018-08-30T16:56:05.423Z,3.62
2018-08-30T16:58:34.850Z,3.80
2018-08-30T17:01:04.254Z,4.58
2018-08-30T17:03:33.654Z,3.87
2018-08-30T17:06:04.187Z,3.33
2018-08-30T17:08:33.417Z,3.17
2018-08-30T17:11:02.683Z,3.52
2018-08-30T17:13:32.084Z,3.52
2018-08-30T17:16:01.399Z,3.90
2018-08-30T17:18:30.888Z,3.63
2018-08-30T17:21:00.392Z,3.37
2018-08-30T17:23:29.647Z,3.73
2018-08-30T17:25:58.950Z,3.43
2018-08-30T17:28:28.212Z,3.22
2018-08-30T17:30:57.794Z,3.43
2018-08-30T17:33:27.161Z,3.40
2018-08-30T17:35:56.804Z,3.87
2018-08-30T17:38:26.310Z,3.43
2018-08-30T17:40:56.019Z,3.50
2018-08-30T17:43:25.527Z,3.53
2018-08-30T17:45:55.140Z,3.50
2018-08-30T17:48:24.633Z,3.73
2018-08-30T17:50:54.169Z,3.20
2018-08-30T17:53:23.747Z,3.33
2018-08-30T17:55:53.423Z,3.30
2018-08-30T17:58:23.059Z,3.70
2018-08-30T18:00:52.451Z,3.70
2018-08-30T18:03:21.966Z,3.27
2018-08-30T18:05:51.326Z,3.53
2018-08-30T18:08:20.623Z,3.40
2018-08-30T18:10:55.498Z,3.50
2018-08-30T18:13:24.899Z,3.63
2018-08-30T18:15:54.151Z,3.43
2018-08-30T18:18:23.520Z,3.70
2018-08-30T18:20:53.207Z,3.60
2018-08-30T18:23:22.591Z,3.67
2018-08-30T18:25:52.012Z,3.13
2018-08-30T18:28:21.514Z,3.93
2018-08-30T18:30:50.857Z,3.60
2018-08-30T18:33:20.321Z,3.33
2018-08-30T18:35:49.621Z,3.50
2018-08-30T18:38:19.124Z,3.57
2018-08-30T18:40:48.734Z,3.53
2018-08-30T18:43:19.300Z,3.70
2018-08-30T18:45:49.073Z,3.80
2018-08-30T18:48:18.780Z,3.77
2018-08-30T18:50:48.284Z,3.70
2018-08-30T18:53:17.539Z,3.57
2018-08-30T18:55:47.192Z,3.70
2018-08-30T18:58:16.593Z,4.03
2018-08-30T19:00:46.095Z,3.93
2018-08-30T19:03:15.552Z,3.77
2018-08-30T19:05:44.931Z,3.62
2018-08-30T19:08:14.407Z,4.10
2018-08-30T19:10:44.013Z,3.90
2018-08-30T19:13:13.453Z,3.57
2018-08-30T19:15:48.245Z,3.50
2018-08-30T19:18:23.385Z,3.90
2018-08-30T19:20:53.023Z,3.47
2018-08-30T19:23:24.402Z,3.57
2018-08-30T19:25:55.779Z,3.10
2018-08-30T19:28:26.416Z,3.50
2018-08-30T19:30:55.818Z,3.33
2018-08-30T19:33:25.322Z,3.50
2018-08-30T19:36:00.151Z,3.60
2018-08-30T19:38:29.758Z,3.53
2018-08-30T19:41:05.613Z,3.63
2018-08-30T19:43:35.062Z,3.67
2018-08-30T19:46:06.053Z,3.27
2018-08-30T19:48:37.943Z,3.63
2018-08-30T19:51:07.520Z,3.40
2018-08-30T19:53:37.128Z,3.90
2018-08-30T19:56:07.143Z,3.73
2018-08-30T19:58:36.608Z,3.30
2018-08-30T20:01:06.059Z,3.63
2018-08-30T20:03:35.554Z,3.60
2018-08-30T20:06:05.263Z,3.30
2018-08-30T20:08:34.679Z,3.60
2018-08-30T20:11:04.475Z,3.50
2018-08-30T20:13:33.944Z,3.67
2018-08-30T20:16:03.486Z,3.70
2018-08-30T20:18:32.936Z,3.33
2018-08-30T20:21:02.394Z,3.60
2018-08-30T20:23:31.793Z,3.40
2018-08-30T20:26:01.307Z,3.43
2018-08-30T20:28:30.700Z,3.33
2018-08-30T20:31:00.192Z,3.77
2018-08-30T20:33:29.605Z,3.60
2018-08-30T20:35:59.008Z,3.40
2018-08-30T20:38:28.615Z,3.40
2018-08-30T20:40:58.033Z,3.53
2018-08-30T20:43:27.524Z,3.50
2018-08-30T20:45:57.637Z,3.30
2018-08-30T20:48:27.043Z,3.33
2018-08-30T20:50:56.263Z,3.50
2018-08-30T20:53:25.599Z,3.50
2018-08-30T20:55:55.044Z,3.67
2018-08-30T20:58:24.650Z,3.70
2018-08-30T21:00:53.914Z,3.57
2018-08-30T21:03:23.454Z,3.87
2018-08-30T21:05:52.855Z,3.33
2018-08-30T21:08:22.360Z,3.60
2018-08-30T21:10:52.787Z,3.60
2018-08-30T21:13:22.087Z,3.50
2018-08-30T21:15:51.535Z,3.83
2018-08-30T21:18:21.094Z,3.83
2018-08-30T21:20:50.549Z,3.37
2018-08-30T21:23:19.999Z,3.50
2018-08-30T21:25:49.402Z,3.53
2018-08-30T21:28:18.907Z,3.60
2018-08-30T21:30:48.238Z,3.90
2018-08-30T21:33:17.916Z,3.60
2018-08-30T21:35:58.798Z,3.67
2018-08-30T21:38:28.190Z,3.80
2018-08-30T21:43:31.092Z,3.73
2018-08-30T21:46:00.491Z,4.00
2018-08-30T21:48:29.994Z,3.80
2018-08-30T21:50:59.500Z,4.10
2018-08-30T21:53:28.900Z,3.97
2018-08-30T21:55:58.406Z,4.03
2018-08-30T21:58:27.910Z,3.90
2018-08-30T22:00:57.358Z,4.10
2018-08-30T22:03:26.687Z,4.00
2018-08-30T22:05:56.064Z,4.13
2018-08-30T22:08:25.570Z,3.70
2018-08-30T22:10:55.125Z,3.80
2018-08-30T22:13:24.628Z,4.10
2018-08-30T22:15:53.883Z,4.00
2018-08-30T22:18:23.537Z,3.87
2018-08-30T22:20:52.908Z,3.57
2018-08-30T22:23:22.296Z,3.90
2018-08-30T22:25:51.843Z,3.60
2018-08-30T22:28:21.348Z,3.90
2018-08-30T22:30:50.751Z,4.37
2018-08-30T22:33:20.254Z,3.93
2018-08-30T22:35:49.761Z,3.73
2018-08-30T22:38:26.028Z,3.97
2018-08-30T22:40:55.661Z,3.57
2018-08-30T22:43:25.004Z,3.80
2018-08-30T22:45:54.431Z,3.43
2018-08-30T22:48:23.936Z,3.73
2018-08-30T22:50:53.393Z,3.63
2018-08-30T22:53:22.906Z,3.50
2018-08-30T22:55:52.551Z,3.43
2018-08-30T22:58:22.159Z,3.50
2018-08-30T23:00:51.615Z,3.87
2018-08-30T23:03:21.277Z,3.40
2018-08-30T23:05:51.760Z,3.60
2018-08-30T23:08:21.506Z,3.40
2018-08-30T23:10:51.114Z,3.30
2018-08-30T23:13:20.683Z,3.47
2018-08-30T23:15:50.430Z,3.50
2018-08-30T23:18:19.935Z,4.10
2018-08-30T23:20:49.446Z,3.50
2018-08-30T23:23:18.842Z,3.50
2018-08-30T23:25:48.447Z,3.67
2018-08-30T23:28:17.951Z,3.70
2018-08-30T23:30:47.319Z,3.60
2018-08-30T23:33:16.686Z,3.43
2018-08-30T23:35:46.155Z,3.47
2018-08-30T23:38:15.621Z,3.60
2018-08-30T23:40:44.961Z,3.53
2018-08-30T23:43:14.464Z,3.30
2018-08-30T23:45:43.916Z,3.80
2018-08-30T23:48:13.208Z,5.07
2018-08-30T23:50:42.774Z,4.77
2018-08-30T23:53:12.277Z,5.10
2018-08-30T23:55:41.780Z,4.30
2018-08-30T23:59:24.401Z,4.17
